createdAt,value
2023-02-13T00:00:16.559Z,29.13
2023-02-13T00:02:43.988Z,27.38
2023-02-13T00:05:11.095Z,31.50
2023-02-13T00:07:38.172Z,29.08
2023-02-13T00:10:05.490Z,26.48
2023-02-13T00:12:32.819Z,28.60
2023-02-13T00:15:00.444Z,27.85
2023-02-13T00:17:27.867Z,29.70
2023-02-13T00:19:55.011Z,27.70
2023-02-13T00:22:22.169Z,27.17
2023-02-13T00:24:49.350Z,26.05
2023-02-13T00:27:16.706Z,31.55
2023-02-13T00:29:43.859Z,25.23
2023-02-13T00:32:11.131Z,28.20
2023-02-13T00:34:38.393Z,27.88
2023-02-13T00:37:05.510Z,24.52
2023-02-13T00:39:32.793Z,26.38
2023-02-13T00:41:59.936Z,27.20
2023-02-13T00:44:27.217Z,28.23
2023-02-13T00:46:54.340Z,27.95
2023-02-13T00:49:21.451Z,26.08
2023-02-13T00:51:48.573Z,29.15
2023-02-13T00:54:15.721Z,26.67
2023-02-13T00:56:43.000Z,28.25
2023-02-13T00:59:10.104Z,29.90
2023-02-13T01:01:37.229Z,28.02
2023-02-13T01:04:04.641Z,26.98
2023-02-13T01:06:31.810Z,31.90
2023-02-13T01:08:58.921Z,29.58
2023-02-13T01:11:26.032Z,31.42
2023-02-13T01:13:53.138Z,26.20
2023-02-13T01:16:20.483Z,28.90
2023-02-13T01:18:47.693Z,29.05
2023-02-13T01:21:17.096Z,28.15
2023-02-13T01:23:44.477Z,27.13
2023-02-13T01:26:19.890Z,27.25
2023-02-13T01:28:47.481Z,27.80
2023-02-13T01:31:14.745Z,26.50
2023-02-13T01:33:41.943Z,26.35
2023-02-13T01:36:10.456Z,28.52
2023-02-13T01:38:37.669Z,31.23
2023-02-13T01:41:04.990Z,27.80
2023-02-13T01:43:46.099Z,30.90
2023-02-13T01:46:14.629Z,26.23
2023-02-13T01:48:41.842Z,29.35
2023-02-13T01:51:12.267Z,28.67
2023-02-13T01:53:39.364Z,29.23
2023-02-13T01:56:10.008Z,25.90
2023-02-13T01:58:38.950Z,26.88
2023-02-13T02:01:07.040Z,32.28
2023-02-13T02:03:39.239Z,27.67
2023-02-13T02:06:08.579Z,25.27
2023-02-13T02:08:36.494Z,30.05
2023-02-13T02:11:08.341Z,26.63
2023-02-13T02:13:35.531Z,30.33
2023-02-13T02:16:03.046Z,27.42
2023-02-13T02:18:30.489Z,26.52
2023-02-13T02:21:09.795Z,29.42
2023-02-13T02:23:48.383Z,28.48
2023-02-13T02:26:27.261Z,29.17
2023-02-13T02:29:09.654Z,26.85
2023-02-13T02:31:36.894Z,29.38
2023-02-13T02:34:09.623Z,26.13
2023-02-13T02:36:57.381Z,28.92
2023-02-13T02:39:31.512Z,25.05
2023-02-13T02:42:01.805Z,27.73
2023-02-13T02:44:40.878Z,27.33
2023-02-13T02:47:32.978Z,28.67
2023-02-13T02:50:06.091Z,30.35
2023-02-13T02:52:40.251Z,29.77
2023-02-13T02:55:16.082Z,30.58
2023-02-13T02:58:05.196Z,27.20
2023-02-13T03:00:52.962Z,30.52
2023-02-13T03:03:41.539Z,28.45
2023-02-13T03:06:17.622Z,32.42
2023-02-13T03:09:05.956Z,25.73
2023-02-13T03:11:51.843Z,29.92
2023-02-13T03:14:21.121Z,32.20
2023-02-13T03:17:07.787Z,28.70
2023-02-13T03:20:02.331Z,28.80
2023-02-13T03:22:34.850Z,28.83
2023-02-13T03:25:14.209Z,34.30
2023-02-13T03:28:03.296Z,30.88
2023-02-13T03:30:33.480Z,28.63
2023-02-13T03:33:20.794Z,30.35
2023-02-13T03:36:16.942Z,28.20
2023-02-13T03:38:50.272Z,28.73
2023-02-13T03:41:23.760Z,30.58
2023-02-13T03:43:57.538Z,32.65
2023-02-13T03:46:26.879Z,29.02
2023-02-13T03:49:13.304Z,28.13
2023-02-13T03:51:51.507Z,26.10
2023-02-13T03:54:46.480Z,30.50
2023-02-13T03:57:35.357Z,32.75
2023-02-13T04:00:03.216Z,28.73
2023-02-13T04:02:34.089Z,32.17
2023-02-13T04:05:08.531Z,32.17
2023-02-13T04:07:35.782Z,31.92
2023-02-13T04:10:05.384Z,33.05
2023-02-13T04:12:44.167Z,33.47
2023-02-13T04:15:19.168Z,32.58
2023-02-13T04:17:49.787Z,33.13
2023-02-13T04:20:16.993Z,29.67
2023-02-13T04:22:45.100Z,31.25
2023-02-13T04:25:13.675Z,33.92
2023-02-13T04:27:40.841Z,29.63
2023-02-13T04:30:09.122Z,29.65
2023-02-13T04:32:36.411Z,26.58
2023-02-13T04:35:03.606Z,30.88
2023-02-13T04:37:30.976Z,30.50
2023-02-13T04:39:58.120Z,27.60
2023-02-13T04:42:25.326Z,31.00
2023-02-13T04:44:52.443Z,33.42
2023-02-13T04:47:19.703Z,29.38
2023-02-13T04:49:47.051Z,31.40
2023-02-13T04:52:15.499Z,29.63
2023-02-13T04:54:42.642Z,33.42
2023-02-13T04:57:09.908Z,31.00
2023-02-13T04:59:37.063Z,33.28
2023-02-13T05:02:04.361Z,30.75
2023-02-13T05:04:31.658Z,31.80
2023-02-13T05:06:58.743Z,34.67
2023-02-13T05:09:26.090Z,33.08
2023-02-13T05:11:54.049Z,29.58
2023-02-13T05:14:21.719Z,31.63
2023-02-13T05:16:49.813Z,34.05
2023-02-13T05:19:17.347Z,37.35
2023-02-13T05:22:03.174Z,32.20
2023-02-13T05:24:30.418Z,31.35
2023-02-13T05:26:57.645Z,31.00
2023-02-13T05:29:24.738Z,34.03
2023-02-13T05:31:53.523Z,31.10
2023-02-13T05:34:21.457Z,32.30
2023-02-13T05:36:48.622Z,32.97
2023-02-13T05:39:16.250Z,35.00
2023-02-13T05:41:44.238Z,35.60
2023-02-13T05:44:12.018Z,32.70
2023-02-13T05:46:39.840Z,30.38
2023-02-13T05:49:07.092Z,34.15
2023-02-13T05:51:34.390Z,34.15
2023-02-13T05:54:01.698Z,33.47
2023-02-13T05:56:28.904Z,30.08
2023-02-13T05:58:56.490Z,36.25
2023-02-13T06:01:24.258Z,32.67
2023-02-13T06:03:51.871Z,34.05
2023-02-13T06:06:19.711Z,32.60
2023-02-13T06:08:46.784Z,33.72
2023-02-13T06:11:13.936Z,31.40
2023-02-13T06:13:41.102Z,35.55
2023-02-13T06:16:08.944Z,35.10
2023-02-13T06:18:36.208Z,36.83
2023-02-13T06:21:03.562Z,32.58
2023-02-13T06:23:30.677Z,35.67
2023-02-13T06:25:57.876Z,35.33
2023-02-13T06:28:25.093Z,34.53
2023-02-13T06:30:52.459Z,35.08
2023-02-13T06:33:19.623Z,32.35
2023-02-13T06:35:46.736Z,34.15
2023-02-13T06:38:13.893Z,30.92
2023-02-13T06:40:41.231Z,35.15
2023-02-13T06:43:08.434Z,32.08
2023-02-13T06:45:35.528Z,36.35
2023-02-13T06:48:02.643Z,39.45
2023-02-13T06:50:29.814Z,35.80
2023-02-13T06:52:57.212Z,35.50
2023-02-13T06:55:24.353Z,36.55
2023-02-13T06:57:51.471Z,32.33
2023-02-13T07:00:19.000Z,33.65
2023-02-13T07:02:47.180Z,39.97
2023-02-13T07:05:15.142Z,36.10
2023-02-13T07:07:42.913Z,34.90
2023-02-13T07:10:11.323Z,39.28
2023-02-13T07:12:38.496Z,36.08
2023-02-13T07:15:06.120Z,36.97
2023-02-13T07:17:34.009Z,34.92
2023-02-13T07:20:01.494Z,36.53
2023-02-13T07:22:28.758Z,37.35
2023-02-13T07:24:55.900Z,37.67
2023-02-13T07:27:23.260Z,35.33
2023-02-13T07:29:50.395Z,41.78
2023-02-13T07:32:17.547Z,33.28
2023-02-13T07:35:00.564Z,40.33
2023-02-13T07:37:29.304Z,37.40
2023-02-13T07:39:56.476Z,39.15
2023-02-13T07:42:23.622Z,40.22
2023-02-13T07:44:51.024Z,39.40
2023-02-13T07:47:20.074Z,37.47
2023-02-13T07:49:47.373Z,36.38
2023-02-13T07:52:14.735Z,36.65
2023-02-13T07:54:47.447Z,39.63
2023-02-13T07:57:15.791Z,36.47
2023-02-13T07:59:43.030Z,36.95
2023-02-13T08:02:16.213Z,38.10
2023-02-13T08:04:46.838Z,33.85
2023-02-13T08:07:18.175Z,34.60
2023-02-13T08:10:18.350Z,33.63
2023-02-13T08:12:45.617Z,35.08
2023-02-13T08:15:13.425Z,37.25
2023-02-13T08:17:43.455Z,34.88
2023-02-13T08:20:10.836Z,37.55
2023-02-13T08:22:38.695Z,35.15
2023-02-13T08:25:06.562Z,32.33
2023-02-13T08:27:34.363Z,36.15
2023-02-13T08:30:04.769Z,32.75
2023-02-13T08:32:42.002Z,29.50
2023-02-13T08:37:47.586Z,30.05
2023-02-13T08:42:45.165Z,28.48
2023-02-13T08:45:12.350Z,29.48
2023-02-13T08:47:40.124Z,26.73
2023-02-13T08:50:07.677Z,28.55
2023-02-13T08:52:34.791Z,27.88
2023-02-13T08:55:03.489Z,26.80
2023-02-13T08:57:31.354Z,29.20
2023-02-13T08:59:58.916Z,29.20
2023-02-13T09:02:26.150Z,27.45
2023-02-13T09:04:53.450Z,26.65
2023-02-13T09:07:20.617Z,29.45
2023-02-13T09:09:47.920Z,30.25
2023-02-13T09:12:15.431Z,29.15
2023-02-13T09:14:42.560Z,27.35
2023-02-13T09:17:09.699Z,26.77
2023-02-13T09:19:36.796Z,27.15
2023-02-13T09:22:04.291Z,29.77
2023-02-13T09:24:31.671Z,26.63
2023-02-13T09:26:58.813Z,25.10
2023-02-13T09:29:30.242Z,26.30
2023-02-13T09:31:57.502Z,27.77
2023-02-13T09:34:24.722Z,28.45
2023-02-13T09:36:53.148Z,25.73
2023-02-13T09:39:20.445Z,22.17
2023-02-13T09:41:49.520Z,24.75
2023-02-13T09:44:36.342Z,27.85
2023-02-13T09:47:15.166Z,29.42
2023-02-13T09:49:45.161Z,21.13
2023-02-13T09:52:12.540Z,27.52
2023-02-13T09:54:39.752Z,25.85
2023-02-13T09:57:42.388Z,27.27
2023-02-13T10:00:14.479Z,31.77
2023-02-13T10:03:01.401Z,26.80
2023-02-13T10:05:28.577Z,25.23
2023-02-13T10:08:08.183Z,24.02
2023-02-13T10:10:35.311Z,26.50
2023-02-13T10:13:12.086Z,23.17
2023-02-13T10:15:48.328Z,24.15
2023-02-13T10:18:22.755Z,25.70
2023-02-13T10:20:52.818Z,25.48
2023-02-13T10:23:25.703Z,31.17
2023-02-13T10:25:55.797Z,26.15
2023-02-13T10:28:30.715Z,29.52
2023-02-13T10:31:00.324Z,24.98
2023-02-13T10:33:30.888Z,25.95
2023-02-13T10:36:01.186Z,25.73
2023-02-13T10:38:30.291Z,27.67
2023-02-13T10:41:16.470Z,26.02
2023-02-13T10:44:06.566Z,21.77
2023-02-13T10:46:46.066Z,24.83
2023-02-13T10:49:51.066Z,25.45
2023-02-13T10:52:24.298Z,26.77
2023-02-13T10:55:12.997Z,26.40
2023-02-13T10:58:12.727Z,24.02
2023-02-13T11:00:40.697Z,21.80
2023-02-13T11:03:32.035Z,17.90
2023-02-13T11:06:01.304Z,23.52
2023-02-13T11:08:28.626Z,23.70
2023-02-13T11:10:55.876Z,26.50
2023-02-13T11:13:24.515Z,26.45
2023-02-13T11:15:57.949Z,23.67
2023-02-13T11:18:26.515Z,25.42
2023-02-13T11:21:02.518Z,23.98
2023-02-13T11:23:33.287Z,25.15
2023-02-13T11:26:02.131Z,23.35
2023-02-13T11:28:30.912Z,22.35
2023-02-13T11:36:04.406Z,22.85
2023-02-13T11:38:31.515Z,22.92
2023-02-13T11:41:12.020Z,25.88
2023-02-13T11:43:49.294Z,24.38
2023-02-13T11:46:26.816Z,23.63
2023-02-13T11:49:04.385Z,24.33
2023-02-13T11:51:37.774Z,23.45
2023-02-13T11:54:05.764Z,27.42
2023-02-13T11:57:04.150Z,23.55
2023-02-13T11:59:34.045Z,25.38
2023-02-13T12:02:06.848Z,22.58
2023-02-13T12:04:33.997Z,22.30
2023-02-13T12:07:02.803Z,23.77
2023-02-13T12:12:02.595Z,19.85
2023-02-13T12:14:36.998Z,22.90
2023-02-13T12:17:31.360Z,23.95
2023-02-13T12:19:59.921Z,23.55
2023-02-13T12:22:38.407Z,22.48
2023-02-13T12:25:09.511Z,23.73
2023-02-13T12:27:42.935Z,23.00
2023-02-13T12:30:13.255Z,19.35
2023-02-13T12:32:59.341Z,19.80
2023-02-13T12:35:29.640Z,23.83
2023-02-13T12:38:08.020Z,20.38
2023-02-13T12:40:59.202Z,23.42
2023-02-13T12:43:35.742Z,21.70
2023-02-13T12:46:18.047Z,24.15
2023-02-13T12:48:51.406Z,23.73
2023-02-13T12:51:26.838Z,23.35
2023-02-13T12:54:12.447Z,21.45
2023-02-13T12:56:48.862Z,24.67
2023-02-13T12:59:25.646Z,21.55
2023-02-13T13:02:04.853Z,22.67
2023-02-13T13:04:48.874Z,24.17
2023-02-13T13:07:19.224Z,22.17
2023-02-13T13:10:00.551Z,20.27
2023-02-13T13:12:46.987Z,21.33
2023-02-13T13:15:21.346Z,20.23
2023-02-13T13:18:02.716Z,20.13
2023-02-13T13:20:36.234Z,25.15
2023-02-13T13:23:10.666Z,21.85
2023-02-13T13:25:40.825Z,23.13
2023-02-13T13:28:31.595Z,23.48
2023-02-13T13:30:59.675Z,17.85
2023-02-13T13:33:30.826Z,24.00
2023-02-13T13:36:04.454Z,18.27
2023-02-13T13:38:32.168Z,21.70
2023-02-13T13:41:02.476Z,22.38
2023-02-13T13:43:42.058Z,19.98
2023-02-13T13:46:15.802Z,21.52
2023-02-13T13:49:11.340Z,19.25
2023-02-13T13:51:38.700Z,16.77
2023-02-13T13:54:05.983Z,19.27
2023-02-13T13:56:51.950Z,21.95
2023-02-13T13:59:19.942Z,19.95
2023-02-13T14:01:47.202Z,17.63
2023-02-13T14:04:33.043Z,19.38
2023-02-13T14:07:00.316Z,21.52
2023-02-13T14:09:38.072Z,21.30
2023-02-13T14:12:23.974Z,21.00
2023-02-13T14:14:52.729Z,20.75
2023-02-13T14:19:51.614Z,20.65
2023-02-13T14:22:33.512Z,24.23
2023-02-13T14:25:01.930Z,22.20
2023-02-13T14:27:37.397Z,16.75
2023-02-13T14:30:07.224Z,15.93
2023-02-13T14:32:36.562Z,22.77
2023-02-13T14:35:19.112Z,22.42
2023-02-13T14:37:51.697Z,20.42
2023-02-13T14:40:18.914Z,22.95
2023-02-13T14:42:48.241Z,20.20
2023-02-13T14:45:19.694Z,23.48
2023-02-13T14:47:53.417Z,23.38
2023-02-13T14:50:22.964Z,23.55
2023-02-13T14:52:50.514Z,21.63
2023-02-13T14:55:34.749Z,25.00
2023-02-13T14:58:09.728Z,22.45
2023-02-13T15:00:56.304Z,24.65
2023-02-13T15:03:26.532Z,22.60
2023-02-13T15:05:54.824Z,21.77
2023-02-13T15:08:33.204Z,21.25
2023-02-13T15:11:00.702Z,24.55
2023-02-13T15:13:33.265Z,21.83
2023-02-13T15:16:04.380Z,22.65
2023-02-13T15:18:34.559Z,22.67
2023-02-13T15:21:02.250Z,21.33
2023-02-13T15:23:30.730Z,23.25
2023-02-13T15:25:59.372Z,21.30
2023-02-13T15:31:02.365Z,20.33
2023-02-13T15:33:33.346Z,22.67
2023-02-13T15:36:01.685Z,22.85
2023-02-13T15:38:33.539Z,24.70
2023-02-13T15:41:06.610Z,23.98
2023-02-13T15:43:35.468Z,22.35
2023-02-13T15:46:05.743Z,24.30
2023-02-13T15:48:34.682Z,22.88
2023-02-13T15:51:03.572Z,23.70
2023-02-13T15:53:31.061Z,22.13
2023-02-13T15:56:00.171Z,27.17
2023-02-13T15:58:30.457Z,23.95
2023-02-13T16:00:58.542Z,24.25
2023-02-13T16:03:28.568Z,23.63
2023-02-13T16:05:55.773Z,23.80
2023-02-13T16:08:33.773Z,24.17
2023-02-13T16:11:11.685Z,23.48
2023-02-13T16:13:39.000Z,26.10
2023-02-13T16:16:09.911Z,23.05
2023-02-13T16:18:37.851Z,21.88
2023-02-13T16:21:09.111Z,25.42
2023-02-13T16:23:37.089Z,23.40
2023-02-13T16:26:07.373Z,25.77
2023-02-13T16:28:34.712Z,25.75
2023-02-13T16:31:03.768Z,30.65
2023-02-13T16:33:32.134Z,26.42
2023-02-13T16:35:59.338Z,32.45
2023-02-13T16:38:29.593Z,25.38
2023-02-13T16:40:58.077Z,25.70
2023-02-13T16:45:52.677Z,32.75
2023-02-13T16:48:19.850Z,32.83
2023-02-13T16:50:47.072Z,33.00
2023-02-13T16:53:16.805Z,30.63
2023-02-13T16:55:44.090Z,31.05
2023-02-13T16:58:13.145Z,25.10
2023-02-13T17:00:40.690Z,27.05
2023-02-13T17:03:09.943Z,26.67
2023-02-13T17:05:37.086Z,26.15
2023-02-13T17:08:04.301Z,29.13
2023-02-13T17:10:38.820Z,29.63
2023-02-13T17:13:19.254Z,27.92
2023-02-13T17:15:47.739Z,30.85
2023-02-13T17:18:14.931Z,22.48
2023-02-13T17:20:43.827Z,26.60
2023-02-13T17:25:38.719Z,28.08
2023-02-13T17:28:16.286Z,25.48
2023-02-13T17:30:44.182Z,25.65
2023-02-13T17:33:13.204Z,27.65
2023-02-13T17:35:40.343Z,25.30
2023-02-13T17:38:09.452Z,30.88
2023-02-13T17:40:36.619Z,23.42
2023-02-13T17:43:03.838Z,30.05
2023-02-13T17:45:32.218Z,26.88
2023-02-13T17:47:59.519Z,28.23
2023-02-13T17:50:27.907Z,28.45
2023-02-13T17:52:55.444Z,24.45
2023-02-13T17:55:27.096Z,28.45
2023-02-13T17:57:56.433Z,31.85
2023-02-13T18:00:24.049Z,33.53
2023-02-13T18:02:52.575Z,41.20
2023-02-13T18:05:20.053Z,38.30
2023-02-13T18:07:47.945Z,44.08
2023-02-13T18:10:17.234Z,48.05
2023-02-13T18:12:44.872Z,38.85
2023-02-13T18:15:21.396Z,27.92
2023-02-13T18:17:48.707Z,32.47
2023-02-13T18:20:17.367Z,29.17
2023-02-13T18:22:44.635Z,36.75
2023-02-13T18:25:12.179Z,33.92
2023-02-13T18:27:39.392Z,35.15
2023-02-13T18:30:07.406Z,31.70
2023-02-13T18:32:34.932Z,33.72
2023-02-13T18:35:02.655Z,32.20
2023-02-13T18:37:30.114Z,33.83
2023-02-13T18:39:57.766Z,32.63
2023-02-13T18:42:25.198Z,28.52
2023-02-13T18:44:52.536Z,33.28
2023-02-13T18:47:19.680Z,31.15
2023-02-13T18:49:46.816Z,28.90
2023-02-13T18:52:14.416Z,27.77
2023-02-13T18:54:41.677Z,31.20
2023-02-13T18:57:08.956Z,30.33
2023-02-13T18:59:36.076Z,29.75
2023-02-13T19:02:04.268Z,28.30
2023-02-13T19:04:31.583Z,28.42
2023-02-13T19:06:58.707Z,31.63
2023-02-13T19:09:25.884Z,30.33
2023-02-13T19:11:53.085Z,31.70
2023-02-13T19:14:20.627Z,34.22
2023-02-13T19:16:47.860Z,64.88
2023-02-13T19:19:15.020Z,31.90
2023-02-13T19:21:42.302Z,28.80
2023-02-13T19:24:11.433Z,31.80
2023-02-13T19:26:39.927Z,36.13
2023-02-13T19:29:07.180Z,32.83
2023-02-13T19:31:34.609Z,29.63
2023-02-13T19:34:01.878Z,31.20
2023-02-13T19:36:41.855Z,28.98
2023-02-13T19:39:09.306Z,32.47
2023-02-13T19:41:36.976Z,32.88
2023-02-13T19:44:05.349Z,30.42
2023-02-13T19:46:33.281Z,34.22
2023-02-13T19:49:00.770Z,34.80
2023-02-13T19:51:29.179Z,33.75
2023-02-13T19:53:57.796Z,37.92
2023-02-13T19:56:27.188Z,38.22
2023-02-13T19:58:54.621Z,41.17
2023-02-13T20:01:22.654Z,37.50
2023-02-13T20:03:50.246Z,39.70
2023-02-13T20:06:21.728Z,38.42
2023-02-13T20:08:49.051Z,39.85
2023-02-13T20:11:17.085Z,43.50
2023-02-13T20:13:44.226Z,41.83
2023-02-13T20:16:12.950Z,43.63
2023-02-13T20:18:40.424Z,37.08
2023-02-13T20:21:08.092Z,37.15
2023-02-13T20:23:35.423Z,37.17
2023-02-13T20:26:06.644Z,38.88
2023-02-13T20:28:33.943Z,36.92
2023-02-13T20:31:04.050Z,38.90
2023-02-13T20:33:31.561Z,43.47
2023-02-13T20:35:58.758Z,55.90
2023-02-13T20:38:25.908Z,72.53
2023-02-13T20:40:53.052Z,81.68
2023-02-13T20:43:21.266Z,60.22
2023-02-13T20:45:48.579Z,56.88
2023-02-13T20:48:16.980Z,41.85
2023-02-13T20:50:44.169Z,46.25
2023-02-13T20:53:11.425Z,50.47
2023-02-13T20:55:38.628Z,52.17
2023-02-13T20:58:05.738Z,43.58
2023-02-13T21:00:32.967Z,45.78
2023-02-13T21:03:00.256Z,43.45
2023-02-13T21:05:27.548Z,41.85
2023-02-13T21:07:54.710Z,44.25
2023-02-13T21:10:22.517Z,41.67
2023-02-13T21:12:49.631Z,44.03
2023-02-13T21:15:16.836Z,30.90
2023-02-13T21:17:44.032Z,34.28
2023-02-13T21:20:11.537Z,38.42
2023-02-13T21:22:38.834Z,30.13
2023-02-13T21:25:06.179Z,29.75
2023-02-13T21:27:34.428Z,30.90
2023-02-13T21:30:01.683Z,31.45
2023-02-13T21:32:31.802Z,30.92
2023-02-13T21:34:59.012Z,35.50
2023-02-13T21:37:26.133Z,28.67
2023-02-13T21:39:53.415Z,25.80
2023-02-13T21:42:20.638Z,30.77
2023-02-13T21:44:47.822Z,29.75
2023-02-13T21:47:16.145Z,32.75
2023-02-13T21:49:43.472Z,32.10
2023-02-13T21:52:10.773Z,35.38
2023-02-13T21:54:38.153Z,40.38
2023-02-13T21:57:05.285Z,31.20
2023-02-13T21:59:32.394Z,29.02
2023-02-13T22:02:00.116Z,28.00
2023-02-13T22:04:27.392Z,27.77
2023-02-13T22:06:54.522Z,45.58
2023-02-13T22:09:22.662Z,26.65
2023-02-13T22:11:52.015Z,33.05
2023-02-13T22:14:19.346Z,34.58
2023-02-13T22:16:46.734Z,36.90
2023-02-13T22:19:15.340Z,32.92
2023-02-13T22:21:42.902Z,28.92
2023-02-13T22:24:10.470Z,29.60
2023-02-13T22:26:39.398Z,30.13
2023-02-13T22:29:08.214Z,29.92
2023-02-13T22:31:35.707Z,30.48
2023-02-13T22:34:05.026Z,28.85
2023-02-13T22:36:40.148Z,31.08
2023-02-13T22:39:08.453Z,32.15
2023-02-13T22:41:35.598Z,27.33
2023-02-13T22:44:02.709Z,28.33
2023-02-13T22:46:31.214Z,31.38
2023-02-13T22:48:59.163Z,30.95
2023-02-13T22:51:28.132Z,36.65
2023-02-13T22:53:56.030Z,34.08
2023-02-13T22:56:24.033Z,28.27
2023-02-13T22:58:51.240Z,28.33
2023-02-13T23:01:19.600Z,32.70
2023-02-13T23:03:47.102Z,36.75
2023-02-13T23:06:15.071Z,43.65
2023-02-13T23:08:42.780Z,34.55
2023-02-13T23:11:29.755Z,35.60
2023-02-13T23:13:57.140Z,33.95
2023-02-13T23:16:24.328Z,34.03
2023-02-13T23:18:52.539Z,30.13
2023-02-13T23:21:20.027Z,34.80
2023-02-13T23:23:47.455Z,30.67
2023-02-13T23:26:14.714Z,31.50
2023-02-13T23:28:41.913Z,34.58
2023-02-13T23:31:09.203Z,31.23
2023-02-13T23:33:36.540Z,31.83
2023-02-13T23:36:03.915Z,28.63
2023-02-13T23:38:31.058Z,31.63
2023-02-13T23:40:58.579Z,27.05
2023-02-13T23:43:25.940Z,30.77
2023-02-13T23:45:53.224Z,31.42
2023-02-13T23:48:20.323Z,31.10
2023-02-13T23:50:48.621Z,30.80
2023-02-13T23:53:15.819Z,31.65
2023-02-13T23:55:42.918Z,30.80
2023-02-13T23:58:10.226Z,28.48
